Time;durP1;ratioP1;P1;durP2;ratioP2;P2;SDS_P1;SDS_P2;PMS_P1;PMS_P2;Temp;Humidity;BMP_temperature;BMP_pressure;BME280_temperature;BME280_humidity;BME280_pressure;Samples;Min_cycle;Max_cycle;Signal;HPM_P1;HPM_P2
2021/09/19 00:02:05;;;;;;;;;;;;;;;-142.75;100.00;77107.72;4999985;28;19917;-79
2021/09/19 00:04:30;;;;;;;;;;;;;;;-142.75;100.00;77109.69;5001562;28;20306;-80
2021/09/19 00:06:56;;;;;;;;;;;;;;;-142.75;100.00;77119.53;5017792;28;19947;-79
2021/09/19 00:09:21;;;;;;;;;;;;;;;-142.75;100.00;77119.53;5022766;28;20009;-79
2021/09/19 00:11:47;;;;;;;;;;;;;;;-142.75;100.00;77121.50;5005591;28;20011;-79
2021/09/19 00:14:12;;;;;;;;;;;;;;;-142.75;100.00;77127.41;5027125;28;19916;-79
2021/09/19 00:16:38;;;;;;;;;;;;;;;-142.75;100.00;77133.31;5008784;28;19920;-78
2021/09/19 00:19:03;;;;;;;;;;;;;;;-142.75;100.00;77133.31;5026117;28;19919;-79
2021/09/19 00:21:28;;;;;;;;;;;;;;;-142.75;100.00;77143.16;5015414;28;19913;-79
2021/09/19 00:23:53;;;;;;;;;;;;;;;-142.75;100.00;77141.19;5020075;28;20298;-80
2021/09/19 00:26:18;;;;;;;;;;;;;;;-142.75;100.00;77141.19;5025652;28;19920;-80
2021/09/19 00:28:43;;;;;;;;;;;;;;;-142.75;100.00;77149.06;5002282;28;19952;-80
2021/09/19 00:31:09;;;;;;;;;;;;;;;-142.75;100.00;77153.00;5008869;28;20004;-79
2021/09/19 00:33:34;;;;;;;;;;;;;;;-142.75;100.00;77154.97;5022615;28;21397;-80
2021/09/19 00:35:59;;;;;;;;;;;;;;;-142.75;100.00;77149.06;5006768;28;19913;-80
2021/09/19 00:38:24;;;;;;;;;;;;;;;-142.75;100.00;77143.16;5028899;28;19964;-80
2021/09/19 00:40:49;;;;;;;;;;;;;;;-142.75;100.00;77143.16;5013158;28;20337;-79
2021/09/19 00:43:15;;;;;;;;;;;;;;;-142.75;100.00;77149.06;5029783;28;19964;-79
2021/09/19 00:45:40;;;;;;;;;;;;;;;-142.75;100.00;77151.03;5025031;28;19920;-78
2021/09/19 00:48:05;;;;;;;;;;;;;;;-142.75;100.00;77156.94;5003348;28;19921;-80
2021/09/19 00:50:31;;;;;;;;;;;;;;;-142.75;100.00;77162.84;5008141;28;19913;-79
2021/09/19 00:52:56;;;;;;;;;;;;;;;-142.75;100.00;77158.91;5006751;28;19913;-79
2021/09/19 00:55:21;;;;;;;;;;;;;;;-142.75;100.00;77164.81;5015394;28;19920;-80
2021/09/19 00:57:47;;;;;;;;;;;;;;;-142.75;100.00;77160.88;5010773;28;19913;-79
2021/09/19 01:00:16;;;;;;;;;;;;;;;-142.75;100.00;77168.75;5028155;28;19914;-79
2021/09/19 01:02:42;;;;;;;;;;;;;;;-142.75;100.00;77174.66;5031711;28;20382;-77
2021/09/19 01:05:08;;;;;;;;;;;;;;;-142.75;100.00;77188.44;5003872;28;19949;-78
2021/09/19 01:07:33;;;;;;;;;;;;;;;-142.75;100.00;77188.44;5023874;28;19967;-79
2021/09/19 01:09:59;;;;;;;;;;;;;;;-142.75;100.00;77180.56;5016907;28;20341;-80
2021/09/19 01:12:24;;;;;;;;;;;;;;;-142.75;100.00;77172.69;5024973;28;19924;-80
2021/09/19 01:14:50;;;;;;;;;;;;;;;-142.75;100.00;77153.00;5033576;28;19913;-79
2021/09/19 01:17:16;;;;;;;;;;;;;;;-142.75;100.00;77168.75;5004840;28;20378;-80
2021/09/19 01:19:44;;;;;;;;;;;;;;;-142.75;100.00;77162.84;5032639;28;19917;-79
2021/09/19 01:22:09;;;;;;;;;;;;;;;-142.75;100.00;77168.75;5029290;28;20374;-78
2021/09/19 01:24:34;;;;;;;;;;;;;;;-142.75;100.00;77172.69;5014021;28;19978;-78
2021/09/19 01:27:00;;;;;;;;;;;;;;;-142.75;100.00;77168.75;5029588;28;19952;-80
2021/09/19 01:29:25;;;;;;;;;;;;;;;-142.75;100.00;77178.59;5026113;28;20106;-78
2021/09/19 01:31:50;;;;;;;;;;;;;;;-142.75;100.00;77178.59;5025488;28;19914;-79
2021/09/19 01:34:15;;;;;;;;;;;;;;;-142.75;100.00;77180.56;5006113;28;20027;-79
2021/09/19 01:36:41;;;;;;;;;;;;;;;-142.75;100.00;77184.50;5031287;28;20380;-79
2021/09/19 01:39:07;;;;;;;;;;;;;;;-142.75;100.00;77184.50;5025439;28;19913;-79
2021/09/19 01:41:33;;;;;;;;;;;;;;;-142.75;100.00;77178.59;5023400;28;19944;-80
2021/09/19 01:43:58;;;;;;;;;;;;;;;-142.75;100.00;77184.50;5003030;28;19960;-78
2021/09/19 01:46:23;;;;;;;;;;;;;;;-142.75;100.00;77192.38;5022448;28;19913;-79
2021/09/19 01:48:48;;;;;;;;;;;;;;;-142.75;100.00;77180.56;5022101;28;19913;-79
2021/09/19 01:51:14;;;;;;;;;;;;;;;-142.75;100.00;77184.50;5003545;28;19914;-80
2021/09/19 01:53:40;;;;;;;;;;;;;;;-142.75;100.00;77176.63;5012981;28;20397;-79
2021/09/19 01:56:06;;;;;;;;;;;;;;;-142.75;100.00;77188.44;5020923;28;19921;-80
2021/09/19 01:58:31;;;;;;;;;;;;;;;-142.75;100.00;77194.34;5024842;28;19917;-80
2021/09/19 02:00:58;;;;;;;;;;;;;;;-142.75;100.00;77210.09;5023760;28;19927;-81
2021/09/19 02:03:23;;;;;;;;;;;;;;;-142.75;100.00;77196.31;5011396;28;20004;-80
2021/09/19 02:05:48;;;;;;;;;;;;;;;-142.75;100.00;77188.44;5000415;28;20003;-80
2021/09/19 02:08:13;;;;;;;;;;;;;;;-142.75;100.00;77184.50;5024378;28;19921;-81
2021/09/19 02:10:39;;;;;;;;;;;;;;;-142.75;100.00;77190.41;5023722;28;19919;-78
2021/09/19 02:13:04;;;;;;;;;;;;;;;-142.75;100.00;77196.31;5014164;28;20405;-79
2021/09/19 02:15:29;;;;;;;;;;;;;;;-142.75;100.00;77198.28;5031820;28;19919;-78
2021/09/19 02:17:55;;;;;;;;;;;;;;;-142.75;100.00;77194.34;5027670;28;19932;-79
2021/09/19 02:20:20;;;;;;;;;;;;;;;-142.75;100.00;77192.38;5006210;28;19913;-79
2021/09/19 02:22:45;;;;;;;;;;;;;;;-142.75;100.00;77196.31;5018829;28;19936;-79
2021/09/19 02:25:10;;;;;;;;;;;;;;;-142.75;100.00;77194.34;5024532;28;19917;-79
2021/09/19 02:27:36;;;;;;;;;;;;;;;-142.75;100.00;77190.41;5027143;28;19913;-79
2021/09/19 02:30:03;;;;;;;;;;;;;;;-142.75;100.00;77194.34;5026888;28;19913;-79
2021/09/19 02:32:29;;;;;;;;;;;;;;;-142.75;100.00;77198.28;5004663;28;19934;-79
2021/09/19 02:34:54;;;;;;;;;;;;;;;-142.75;100.00;77200.25;5023902;28;19918;-79
2021/09/19 02:37:19;;;;;;;;;;;;;;;-142.75;100.00;77208.13;5005138;28;19913;-80
2021/09/19 02:39:44;;;;;;;;;;;;;;;-142.75;100.00;77219.94;5029172;28;19920;-79
2021/09/19 02:42:09;;;;;;;;;;;;;;;-142.75;100.00;77225.84;5002418;28;20020;-80
2021/09/19 02:44:35;;;;;;;;;;;;;;;-142.75;100.00;77221.91;5000748;28;19944;-79
2021/09/19 02:47:00;;;;;;;;;;;;;;;-142.75;100.00;77216.00;5020189;28;19966;-80
2021/09/19 02:49:25;;;;;;;;;;;;;;;-142.75;100.00;77204.19;5008571;28;19959;-79
2021/09/19 02:51:50;;;;;;;;;;;;;;;-142.75;100.00;77208.13;4996745;28;19936;-80
2021/09/19 02:54:15;;;;;;;;;;;;;;;-142.75;100.00;77194.34;5029435;28;19913;-80
2021/09/19 02:56:41;;;;;;;;;;;;;;;-142.75;100.00;77196.31;5002439;28;19921;-79
2021/09/19 02:59:06;;;;;;;;;;;;;;;-142.75;100.00;77204.19;5027012;28;19920;-77
2021/09/19 03:01:31;;;;;;;;;;;;;;;-142.75;100.00;77206.16;4999550;28;19964;-79
2021/09/19 03:03:56;;;;;;;;;;;;;;;-142.75;100.00;77216.00;5021933;28;19917;-79
2021/09/19 03:06:24;;;;;;;;;;;;;;;-142.75;100.00;77206.16;5018938;28;20004;-80
2021/09/19 03:08:49;;;;;;;;;;;;;;;-142.75;100.00;77225.84;5033619;28;20440;-80
2021/09/19 03:11:14;;;;;;;;;;;;;;;-142.75;100.00;77237.66;5005123;28;19918;-79
2021/09/19 03:13:39;;;;;;;;;;;;;;;-142.75;100.00;77247.50;5022774;28;20079;-80
2021/09/19 03:16:05;;;;;;;;;;;;;;;-142.75;100.00;77255.38;5020346;28;20304;-78
2021/09/19 03:18:30;;;;;;;;;;;;;;;-142.75;100.00;77251.44;5011517;28;19966;-80
2021/09/19 03:20:55;;;;;;;;;;;;;;;-142.75;100.00;77251.44;4996320;28;20405;-79
2021/09/19 03:23:20;;;;;;;;;;;;;;;-142.75;100.00;77227.81;5018386;28;20016;-79
2021/09/19 03:25:46;;;;;;;;;;;;;;;-142.75;100.00;77219.94;5025693;28;19913;-79
2021/09/19 03:28:11;;;;;;;;;;;;;;;-142.75;100.00;77214.03;5005476;28;20004;-79
2021/09/19 03:30:36;;;;;;;;;;;;;;;-142.75;100.00;77225.84;5020876;28;19995;-79
2021/09/19 03:33:02;;;;;;;;;;;;;;;-142.75;100.00;77235.69;5009776;28;20433;-79
2021/09/19 03:35:28;;;;;;;;;;;;;;;-142.75;100.00;77227.81;4997979;28;20009;-79
2021/09/19 03:37:53;;;;;;;;;;;;;;;-142.75;100.00;77227.81;5001278;28;19952;-79
2021/09/19 03:40:18;;;;;;;;;;;;;;;-142.75;100.00;77239.63;5027777;28;19959;-79
2021/09/19 03:42:43;;;;;;;;;;;;;;;-142.75;100.00;77247.50;5024051;28;19921;-78
2021/09/19 03:45:09;;;;;;;;;;;;;;;-142.75;100.00;77247.50;5024098;28;19929;-78
2021/09/19 03:47:34;;;;;;;;;;;;;;;-142.75;100.00;77277.03;5034904;28;20009;-79
2021/09/19 03:50:00;;;;;;;;;;;;;;;-142.75;100.00;77275.06;5021651;28;19924;-80
2021/09/19 03:52:25;;;;;;;;;;;;;;;-142.75;100.00;77275.06;5015468;28;19920;-79
2021/09/19 03:54:50;;;;;;;;;;;;;;;-142.75;100.00;77284.91;5024153;28;19975;-79
2021/09/19 03:57:15;;;;;;;;;;;;;;;-142.75;100.00;77275.06;5008084;28;19917;-79
2021/09/19 03:59:41;;;;;;;;;;;;;;;-142.75;100.00;77275.06;5034462;28;19995;-79
2021/09/19 04:02:06;;;;;;;;;;;;;;;-142.75;100.00;77275.06;5015041;28;19921;-79
2021/09/19 04:04:31;;;;;;;;;;;;;;;-142.75;100.00;77267.19;5027886;28;19959;-78
2021/09/19 04:06:56;;;;;;;;;;;;;;;-142.75;100.00;77275.06;5007923;28;19913;-79
2021/09/19 04:09:22;;;;;;;;;;;;;;;-142.75;100.00;77269.16;5006686;28;19913;-79
2021/09/19 04:11:47;;;;;;;;;;;;;;;-142.75;100.00;77271.13;5026428;28;20004;-77
2021/09/19 04:14:12;;;;;;;;;;;;;;;-142.75;100.00;77279.00;5002203;28;19966;-79
2021/09/19 04:16:37;;;;;;;;;;;;;;;-142.75;100.00;77288.84;5003445;28;19920;-78
2021/09/19 04:19:03;;;;;;;;;;;;;;;-142.75;100.00;77294.75;5029197;28;20015;-78
2021/09/19 04:21:30;;;;;;;;;;;;;;;-142.75;100.00;77292.78;5015056;28;20289;-79
2021/09/19 04:23:55;;;;;;;;;;;;;;;-142.75;100.00;77282.94;5009752;28;19927;-79
2021/09/19 04:26:21;;;;;;;;;;;;;;;-142.75;100.00;77282.94;5011381;28;19912;-79
2021/09/19 04:28:46;;;;;;;;;;;;;;;-142.75;100.00;77280.97;5006474;28;20358;-78
2021/09/19 04:31:11;;;;;;;;;;;;;;;-142.75;100.00;77271.13;5022494;28;19963;-79
2021/09/19 04:33:36;;;;;;;;;;;;;;;-142.75;100.00;77275.06;5021748;28;20007;-79
2021/09/19 04:36:01;;;;;;;;;;;;;;;-142.75;100.00;77265.22;5025696;28;20370;-79
2021/09/19 04:38:27;;;;;;;;;;;;;;;-142.75;100.00;77267.19;5027798;28;19980;-79
2021/09/19 04:40:52;;;;;;;;;;;;;;;-142.75;100.00;77259.31;5006541;28;20272;-78
2021/09/19 04:43:17;;;;;;;;;;;;;;;-142.75;100.00;77259.31;5027572;28;19917;-78
2021/09/19 04:45:42;;;;;;;;;;;;;;;-142.75;100.00;77251.44;5023760;28;19937;-78
2021/09/19 04:48:08;;;;;;;;;;;;;;;-142.75;100.00;77265.22;5010968;28;19961;-78
2021/09/19 04:50:33;;;;;;;;;;;;;;;-142.75;100.00;77275.06;5019099;28;20341;-78
2021/09/19 04:52:58;;;;;;;;;;;;;;;-142.75;100.00;77284.91;5021580;28;19913;-79
2021/09/19 04:55:24;;;;;;;;;;;;;;;-142.75;100.00;77290.81;4999302;28;19921;-79
2021/09/19 04:57:49;;;;;;;;;;;;;;;-142.75;100.00;77294.75;5022450;28;20359;-79
2021/09/19 05:00:14;;;;;;;;;;;;;;;-142.75;100.00;77286.88;5001202;28;19921;-78
2021/09/19 05:02:40;;;;;;;;;;;;;;;-142.75;100.00;77286.88;4999369;28;20015;-79
2021/09/19 05:05:05;;;;;;;;;;;;;;;-142.75;100.00;77288.84;5005006;28;20056;-79
2021/09/19 05:07:30;;;;;;;;;;;;;;;-142.75;100.00;77292.78;5000312;28;19940;-78
2021/09/19 05:09:56;;;;;;;;;;;;;;;-142.75;100.00;77296.72;5008841;28;19920;-78
2021/09/19 05:12:21;;;;;;;;;;;;;;;-142.75;100.00;77300.66;5014577;28;19960;-78
2021/09/19 05:14:49;;;;;;;;;;;;;;;-142.75;100.00;77306.56;5030201;28;21410;-79
2021/09/19 05:17:14;;;;;;;;;;;;;;;-142.75;100.00;77312.47;5014356;28;19919;-78
2021/09/19 05:19:39;;;;;;;;;;;;;;;-142.75;100.00;77328.22;5017518;28;19917;-79
2021/09/19 05:22:04;;;;;;;;;;;;;;;-142.75;100.00;77345.94;5022993;28;20004;-79
2021/09/19 05:24:29;;;;;;;;;;;;;;;-142.75;100.00;77340.03;5032460;28;19917;-79
2021/09/19 05:26:55;;;;;;;;;;;;;;;-142.75;100.00;77338.06;5036266;28;19943;-78
2021/09/19 05:29:20;;;;;;;;;;;;;;;-142.75;100.00;77310.50;5028056;28;19956;-78
2021/09/19 05:31:45;;;;;;;;;;;;;;;-142.75;100.00;77322.31;5028066;28;19936;-79
2021/09/19 05:34:10;;;;;;;;;;;;;;;-142.75;100.00;77316.41;5009120;28;19924;-79
2021/09/19 05:36:36;;;;;;;;;;;;;;;-142.75;100.00;77326.25;4998593;28;19919;-79
2021/09/19 05:39:01;;;;;;;;;;;;;;;-142.75;100.00;77328.22;5002757;28;20326;-78
2021/09/19 05:41:26;;;;;;;;;;;;;;;-142.75;100.00;77324.28;5013410;28;19928;-78
2021/09/19 05:43:51;;;;;;;;;;;;;;;-142.75;100.00;77312.47;5011009;28;20392;-77
2021/09/19 05:46:18;;;;;;;;;;;;;;;-142.75;100.00;77306.56;5024900;28;20318;-78
2021/09/19 05:48:43;;;;;;;;;;;;;;;-142.75;100.00;77294.75;5025363;28;19991;-79
2021/09/19 05:51:09;;;;;;;;;;;;;;;-142.75;100.00;77280.97;5006888;28;20044;-79
2021/09/19 05:53:34;;;;;;;;;;;;;;;-142.75;100.00;77280.97;5007264;28;19913;-79
2021/09/19 05:55:59;;;;;;;;;;;;;;;-142.75;100.00;77282.94;5025782;28;19921;-78
2021/09/19 05:58:24;;;;;;;;;;;;;;;-142.75;100.00;77284.91;5008570;28;20314;-79
2021/09/19 06:00:49;;;;;;;;;;;;;;;-142.75;100.00;77280.97;5026785;28;19955;-78
2021/09/19 06:03:15;;;;;;;;;;;;;;;-142.75;100.00;77277.03;5012504;28;19949;-79
2021/09/19 06:05:40;;;;;;;;;;;;;;;-142.75;100.00;77259.31;5011535;28;19913;-79
2021/09/19 06:08:05;;;;;;;;;;;;;;;-142.75;100.00;77223.88;5021180;28;19913;-79
2021/09/19 06:10:30;;;;;;;;;;;;;;;-142.75;100.00;77192.38;5023243;28;19921;-78
2021/09/19 06:12:55;;;;;;;;;;;;;;;-142.75;100.00;77166.78;5022540;28;19913;-79
2021/09/19 06:15:21;;;;;;;;;;;;;;;-142.75;100.00;77115.59;5007489;28;20000;-78
2021/09/19 06:17:46;;;;;;;;;;;;;;;-142.75;100.00;77078.19;5020431;28;19913;-77
2021/09/19 06:20:11;;;;;;;;;;;;;;;-142.75;100.00;77032.91;5003197;28;19963;-77
2021/09/19 06:22:36;;;;;;;;;;;;;;;-142.75;100.00;76991.56;5021417;28;20031;-77
2021/09/19 06:25:02;;;;;;;;;;;;;;;-142.75;100.00;76954.16;5023849;28;19924;-77
2021/09/19 06:27:27;;;;;;;;;;;;;;;-142.75;100.00;76910.84;5010396;28;19916;-77
2021/09/19 06:29:52;;;;;;;;;;;;;;;-142.75;100.00;76865.56;5027509;28;19914;-77
2021/09/19 06:32:17;;;;;;;;;;;;;;;-142.75;99.39;76826.19;5009277;28;20362;-78
2021/09/19 06:34:42;;;;;;;;;;;;;;;-142.75;96.78;76767.16;5011436;28;19938;-78
2021/09/19 06:37:08;;;;;;;;;;;;;;;-142.75;93.37;76721.88;5023732;28;19913;-78
2021/09/19 06:39:33;;;;;;;;;;;;;;;-142.75;89.31;76710.06;5029061;28;19921;-79
2021/09/19 06:41:59;;;;;;;;;;;;;;;-142.75;89.04;76715.97;5025125;28;19920;-78
2021/09/19 06:44:24;;;;;;;;;;;;;;;-142.75;89.49;76729.75;5006163;28;20148;-81
2021/09/19 06:46:52;;;;;;;;;;;;;;;-142.75;90.71;76751.41;5023195;28;20305;-78
2021/09/19 06:49:17;;;;;;;;;;;;;;;-142.75;91.31;76741.56;4995854;28;19920;-79
2021/09/19 06:51:42;;;;;;;;;;;;;;;-142.75;91.97;76751.41;5022165;28;19913;-79
2021/09/19 06:54:07;;;;;;;;;;;;;;;-142.75;92.45;76745.50;5022356;28;19924;-77
2021/09/19 06:56:33;;;;;;;;;;;;;;;-142.75;92.17;76696.28;5021553;28;19915;-78
2021/09/19 06:58:58;;;;;;;;;;;;;;;-142.75;90.52;76652.97;5001438;28;20400;-77
2021/09/19 07:01:24;;;;;;;;;;;;;;;-142.75;87.61;76617.53;5026936;28;19913;-78
2021/09/19 07:03:49;;;;;;;;;;;;;;;-142.75;86.92;76643.13;5006480;28;19923;-77
2021/09/19 07:06:15;;;;;;;;;;;;;;;-142.75;86.35;76558.47;5001228;28;19921;-79
2021/09/19 07:08:40;;;;;;;;;;;;;;;-142.75;85.74;76552.56;5015717;28;19967;-78
2021/09/19 07:11:05;;;;;;;;;;;;;;;-142.75;82.67;76534.84;5011245;28;19916;-80
2021/09/19 07:13:31;;;;;;;;;;;;;;;-142.75;84.16;76554.53;5009339;28;19913;-79
2021/09/19 07:15:56;;;;;;;;;;;;;;;-142.75;83.36;76566.34;5016971;28;19964;-78
2021/09/19 07:18:22;;;;;;;;;;;;;;;-142.75;83.84;76558.47;5019877;28;19927;-79
2021/09/19 07:20:47;;;;;;;;;;;;;;;-142.75;84.44;76562.41;5021434;28;19940;-79
2021/09/19 07:23:12;;;;;;;;;;;;;;;-142.75;85.65;76631.31;5018815;28;19920;-80
2021/09/19 07:25:37;;;;;;;;;;;;;;;-142.75;86.48;76647.06;5019067;28;19940;-78
2021/09/19 07:28:04;;;;;;;;;;;;;;;-142.75;88.15;76662.81;5008361;28;19959;-78
2021/09/19 07:30:29;;;;;;;;;;;;;;;-142.75;88.93;76637.22;5018357;28;19949;-80
2021/09/19 07:32:55;;;;;;;;;;;;;;;-142.75;86.29;76556.50;5002113;28;19924;-77
2021/09/19 07:35:20;;;;;;;;;;;;;;;-142.75;83.86;76584.06;5013015;28;20004;-79
2021/09/19 07:37:45;;;;;;;;;;;;;;;-142.75;83.27;76570.28;5033983;28;19917;-79
2021/09/19 07:40:11;;;;;;;;;;;;;;;-142.75;84.81;76599.81;5025692;28;19955;-78
2021/09/19 07:42:36;;;;;;;;;;;;;;;-142.75;83.90;76576.19;5005111;28;19921;-78
2021/09/19 07:45:02;;;;;;;;;;;;;;;-142.75;83.16;76546.66;5008937;28;20290;-79
2021/09/19 07:47:28;;;;;;;;;;;;;;;-142.75;82.02;76538.78;5030329;28;19920;-78
2021/09/19 07:49:54;;;;;;;;;;;;;;;-142.75;81.05;76544.69;5012131;28;19920;-78
2021/09/19 07:52:20;;;;;;;;;;;;;;;-142.75;81.30;76501.41;5021010;28;20291;-79
2021/09/19 07:54:46;;;;;;;;;;;;;;;-142.75;80.48;76475.81;5024598;28;19917;-78
2021/09/19 07:57:11;;;;;;;;;;;;;;;-142.75;77.49;76467.94;5022449;28;19917;-78
2021/09/19 07:59:36;;;;;;;;;;;;;;;-142.75;76.28;76420.69;5016578;28;19974;-79
2021/09/19 08:02:02;;;;;;;;;;;;;;;-142.75;77.88;76507.31;4995085;28;20298;-76
2021/09/19 08:04:27;;;;;;;;;;;;;;;-142.75;76.46;76430.53;5010511;28;19921;-80
2021/09/19 08:06:52;;;;;;;;;;;;;;;-142.75;75.88;76428.56;5011310;28;20527;-78
2021/09/19 08:09:17;;;;;;;;;;;;;;;-142.75;74.76;76397.06;5014006;28;19916;-80
2021/09/19 08:11:43;;;;;;;;;;;;;;;-142.75;74.35;76408.88;5008083;28;19913;-78
2021/09/19 08:14:08;;;;;;;;;;;;;;;-142.75;74.29;76363.59;5003908;28;19929;-80
2021/09/19 08:16:40;;;;;;;;;;;;;;;-142.75;73.95;76330.16;5000891;28;19989;-79
2021/09/19 08:19:06;;;;;;;;;;;;;;;-142.75;71.38;76286.84;5022383;28;19917;-79
2021/09/19 08:21:32;;;;;;;;;;;;;;;-142.75;71.14;76231.72;5002144;28;19921;-78
2021/09/19 08:23:57;;;;;;;;;;;;;;;-142.75;69.22;76271.09;5006998;28;19917;-78
2021/09/19 08:26:22;;;;;;;;;;;;;;;-142.75;69.18;76267.16;5004129;28;19920;-79
2021/09/19 08:28:48;;;;;;;;;;;;;;;-142.75;70.41;76294.72;4999228;28;19914;-79
2021/09/19 08:31:13;;;;;;;;;;;;;;;-142.75;68.83;76176.63;5027694;28;19920;-79
2021/09/19 08:33:38;;;;;;;;;;;;;;;-142.75;66.91;76208.09;5010862;28;19914;-78
2021/09/19 08:36:03;;;;;;;;;;;;;;;-142.75;65.98;76225.81;5030210;28;20400;-79
2021/09/19 08:38:29;;;;;;;;;;;;;;;-142.75;67.07;76186.47;5027185;28;19913;-78
2021/09/19 08:40:54;;;;;;;;;;;;;;;-142.75;65.89;76135.28;5009329;28;19971;-80
2021/09/19 08:43:19;;;;;;;;;;;;;;;-142.75;65.26;76111.66;5011586;28;19921;-80
2021/09/19 08:45:45;;;;;;;;;;;;;;;-142.75;64.96;76090.00;5016492;28;20402;-80
2021/09/19 08:48:11;;;;;;;;;;;;;;;-142.75;63.33;76060.50;5031464;28;19963;-79
2021/09/19 08:50:36;;;;;;;;;;;;;;;-142.75;64.91;76117.56;5032027;28;19912;-78
2021/09/19 08:53:01;;;;;;;;;;;;;;;-142.75;64.88;76164.81;5029481;28;19913;-79
2021/09/19 08:55:26;;;;;;;;;;;;;;;-142.75;65.80;76182.53;5029126;28;19947;-79
2021/09/19 08:57:52;;;;;;;;;;;;;;;-142.75;66.68;76188.44;5014040;28;19920;-78
2021/09/19 09:00:17;;;;;;;;;;;;;;;-142.75;65.18;76141.19;5018289;28;20008;-79
2021/09/19 09:02:47;;;;;;;;;;;;;;;-142.75;64.37;76141.19;5027190;28;19935;-78
2021/09/19 09:05:24;;;;;;;;;;;;;;;-142.75;63.64;76097.88;5014303;28;20013;-79
2021/09/19 09:07:53;;;;;;;;;;;;;;;-142.75;63.88;76129.38;5009586;28;20432;-79
2021/09/19 09:10:30;;;;;;;;;;;;;;;-142.75;63.08;76029.00;5004285;28;19956;-78
2021/09/19 09:13:00;;;;;;;;;;;;;;;-142.75;61.59;75960.13;5010430;28;19917;-79
2021/09/19 09:15:33;;;;;;;;;;;;;;;-142.75;59.97;76011.28;5012501;28;19923;-79
2021/09/19 09:17:58;;;;;;;;;;;;;;;-142.75;61.63;76086.06;5011022;28;19913;-77
2021/09/19 09:20:23;;;;;;;;;;;;;;;-142.75;62.70;76105.75;5017049;28;20382;-77
2021/09/19 09:22:49;;;;;;;;;;;;;;;-142.75;62.80;76090.00;5008677;28;19917;-78
2021/09/19 09:25:16;;;;;;;;;;;;;;;-142.75;61.90;76046.72;5022669;28;19918;-77
2021/09/19 09:27:43;;;;;;;;;;;;;;;-142.75;63.03;76068.38;4999282;28;19913;-79
2021/09/19 09:30:19;;;;;;;;;;;;;;;-142.75;61.24;76046.72;5002300;28;20335;-78
2021/09/19 09:32:56;;;;;;;;;;;;;;;-142.75;60.37;76054.59;5000396;28;19914;-77
2021/09/19 09:35:22;;;;;;;;;;;;;;;-142.75;59.60;76001.44;5005968;28;20004;-77
2021/09/19 09:37:47;;;;;;;;;;;;;;;-142.75;60.60;76052.63;5010378;28;19940;-79
2021/09/19 09:40:20;;;;;;;;;;;;;;;-142.75;59.84;75975.84;5011139;28;20003;-78
2021/09/19 09:43:00;;;;;;;;;;;;;;;-142.75;59.98;75997.50;5019429;28;19993;-77
2021/09/19 09:45:25;;;;;;;;;;;;;;;-142.75;59.78;75987.66;5033248;28;19917;-79
2021/09/19 09:47:50;;;;;;;;;;;;;;;-142.75;58.97;75942.41;5018040;28;19913;-78
2021/09/19 09:50:23;;;;;;;;;;;;;;;-142.75;57.20;75857.78;4998058;28;19960;-78
2021/09/19 09:52:48;;;;;;;;;;;;;;;-142.75;56.57;75857.78;4998236;28;20498;-78
2021/09/19 09:55:13;;;;;;;;;;;;;;;-142.75;57.35;75905.00;5031638;28;19963;-79
2021/09/19 09:57:38;;;;;;;;;;;;;;;-142.75;60.11;76054.59;5023574;28;19928;-79
2021/09/19 10:00:09;;;;;;;;;;;;;;;-142.75;60.66;75999.47;5012892;28;19913;-79
2021/09/19 10:02:35;;;;;;;;;;;;;;;-142.75;59.75;75944.38;5003984;28;20027;-79
2021/09/19 10:05:00;;;;;;;;;;;;;;;-142.75;58.12;75842.03;5030570;28;19956;-82
2021/09/19 10:07:26;;;;;;;;;;;;;;;-142.75;56.13;75796.75;5010529;28;19921;-81
2021/09/19 10:09:51;;;;;;;;;;;;;;;-142.75;57.92;75914.84;5002561;28;19913;-80
2021/09/19 10:12:20;;;;;;;;;;;;;;;-142.75;55.51;75814.47;5029591;28;19913;-80
2021/09/19 10:14:47;;;;;;;;;;;;;;;-142.75;55.26;75830.22;5014708;28;19917;-79
2021/09/19 10:17:12;;;;;;;;;;;;;;;-142.75;55.07;75875.47;5031281;28;19917;-79
2021/09/19 10:19:37;;;;;;;;;;;;;;;-142.75;56.00;75863.66;5034763;28;19956;-80
2021/09/19 10:22:02;;;;;;;;;;;;;;;-142.75;54.68;75796.75;5011630;28;20313;-80
2021/09/19 10:24:34;;;;;;;;;;;;;;;-142.75;54.62;75804.63;5034481;28;19923;-78
2021/09/19 10:27:00;;;;;;;;;;;;;;;-142.75;54.17;75830.22;5027466;28;19917;-79
2021/09/19 10:29:28;;;;;;;;;;;;;;;-142.75;53.31;75765.25;5005047;28;19997;-79
2021/09/19 10:31:57;;;;;;;;;;;;;;;-142.75;54.07;75804.63;5018019;28;20310;-79
2021/09/19 10:34:27;;;;;;;;;;;;;;;-142.75;53.97;75759.38;4997173;28;19913;-78
2021/09/19 10:36:55;;;;;;;;;;;;;;;-142.75;51.81;75635.38;5015418;28;19976;-81
2021/09/19 10:39:20;;;;;;;;;;;;;;;-142.75;51.10;75641.28;5012127;28;19947;-80
2021/09/19 10:42:06;;;;;;;;;;;;;;;-142.75;51.30;75662.94;5023721;28;20576;-78
2021/09/19 10:44:35;;;;;;;;;;;;;;;-142.75;52.36;75700.31;5016461;28;19923;-79
2021/09/19 10:47:04;;;;;;;;;;;;;;;-142.75;52.87;75767.22;5032892;28;19920;-79
2021/09/19 10:49:33;;;;;;;;;;;;;;;-142.75;52.01;75678.66;5003688;28;19914;-78
2021/09/19 10:52:01;;;;;;;;;;;;;;;-142.75;52.37;75698.34;5017659;28;19913;-80
2021/09/19 10:54:49;;;;;;;;;;;;;;;-142.75;52.54;75727.88;5029403;28;19975;-79
2021/09/19 10:57:16;;;;;;;;;;;;;;;-142.75;52.33;75706.22;5005470;28;19917;-79
2021/09/19 11:00:00;;;;;;;;;;;;;;;-142.75;51.22;75668.84;5022757;28;19913;-79
2021/09/19 11:02:28;;;;;;;;;;;;;;;-142.75;52.88;75613.72;5014980;28;19920;-80
2021/09/19 11:05:13;;;;;;;;;;;;;;;-142.75;50.71;75647.19;5019634;28;19921;-79
2021/09/19 11:07:40;;;;;;;;;;;;;;;-142.75;51.64;75662.94;5005655;28;20015;-80
2021/09/19 11:10:08;;;;;;;;;;;;;;;-142.75;51.57;75688.50;4998601;28;19917;-79
2021/09/19 11:12:40;;;;;;;;;;;;;;;-142.75;52.18;75745.59;5025317;28;19912;-79
2021/09/19 11:15:06;;;;;;;;;;;;;;;-142.75;52.84;75784.94;5013825;28;19996;-79
2021/09/19 11:17:33;;;;;;;;;;;;;;;-142.75;52.83;75763.28;5007531;28;19920;-79
2021/09/19 11:20:10;;;;;;;;;;;;;;;-142.75;54.26;75788.88;5018782;28;19914;-79
2021/09/19 11:22:35;;;;;;;;;;;;;;;-142.75;53.18;75830.22;5015894;28;20298;-81
2021/09/19 11:25:01;;;;;;;;;;;;;;;-142.75;52.80;75759.38;5031655;28;19917;-80
2021/09/19 11:27:29;;;;;;;;;;;;;;;-142.75;52.84;75767.22;5027883;28;19928;-80
2021/09/19 11:29:55;;;;;;;;;;;;;;;-142.75;53.14;75804.63;5016884;28;20389;-78
2021/09/19 11:32:20;;;;;;;;;;;;;;;-142.75;55.45;75873.50;5018899;28;19959;-80
2021/09/19 11:34:45;;;;;;;;;;;;;;;-142.75;56.08;75879.41;5004983;28;19913;-79
2021/09/19 11:37:11;;;;;;;;;;;;;;;-142.75;56.22;75918.78;5010993;28;20008;-79
2021/09/19 11:39:36;;;;;;;;;;;;;;;-142.75;56.30;75971.91;5016618;28;19913;-79
2021/09/19 11:42:07;;;;;;;;;;;;;;;-142.75;59.33;76011.28;5008287;28;20028;-80
2021/09/19 11:44:32;;;;;;;;;;;;;;;-142.75;60.19;75995.53;5003366;28;19981;-79
2021/09/19 11:46:57;;;;;;;;;;;;;;;-142.75;60.80;75995.53;5014027;28;19955;-79
2021/09/19 11:49:22;;;;;;;;;;;;;;;-142.75;60.66;76044.75;5029297;28;19983;-79
2021/09/19 11:51:47;;;;;;;;;;;;;;;-142.75;60.96;76032.94;4995771;28;19913;-80
2021/09/19 11:54:14;;;;;;;;;;;;;;;-142.75;61.36;76076.22;4997600;28;20340;-79
2021/09/19 11:56:41;;;;;;;;;;;;;;;-142.75;61.28;76080.16;5021864;28;19913;-80
2021/09/19 11:59:09;;;;;;;;;;;;;;;-142.75;61.10;76058.53;5028738;28;19920;-80
2021/09/19 12:01:34;;;;;;;;;;;;;;;-142.75;61.27;76072.31;5026176;28;19989;-82
2021/09/19 12:04:05;;;;;;;;;;;;;;;-142.75;61.64;76052.63;5004830;28;19964;-81
2021/09/19 12:06:31;;;;;;;;;;;;;;;-142.75;61.03;76060.50;5022132;28;20007;-79
2021/09/19 12:08:56;;;;;;;;;;;;;;;-142.75;61.47;76029.00;5017989;28;20337;-81
2021/09/19 12:11:36;;;;;;;;;;;;;;;-142.75;60.61;76032.94;5012040;28;19967;-79
2021/09/19 12:14:01;;;;;;;;;;;;;;;-142.75;61.77;76054.59;5009487;28;19971;-80
2021/09/19 12:16:29;;;;;;;;;;;;;;;-142.75;61.44;76048.69;5025236;28;19913;-79